Time;durP1;ratioP1;P1;durP2;ratioP2;P2;SDS_P1;SDS_P2;PMS_P1;PMS_P2;Temp;Humidity;BMP_temperature;BMP_pressure;BME280_temperature;BME280_humidity;BME280_pressure;Samples;Min_cycle;Max_cycle;Signal;HPM_P1;HPM_P2
2021/12/10 00:00:36;;;;;;;8.57;4.47;;;4.90;91.90;;;;;;5014372;28;20163;-73
2021/12/10 00:03:06;;;;;;;8.10;4.83;;;4.90;91.90;;;;;;5013573;28;20507;-74
2021/12/10 00:05:39;;;;;;;5.63;3.87;;;4.90;91.90;;;;;;4996295;28;20536;-73
2021/12/10 00:08:06;;;;;;;6.47;4.40;;;4.90;91.90;;;;;;5019461;28;20405;-74
2021/12/10 00:10:36;;;;;;;5.10;4.27;;;4.90;92.00;;;;;;5018135;28;20410;-73
2021/12/10 00:13:03;;;;;;;9.47;3.83;;;4.90;92.10;;;;;;5015825;28;20452;-73
2021/12/10 00:15:31;;;;;;;5.57;4.03;;;4.80;91.90;;;;;;5016618;28;20492;-73
2021/12/10 00:17:59;;;;;;;6.10;3.30;;;4.80;91.80;;;;;;4999394;28;20429;-73
2021/12/10 00:20:28;;;;;;;6.17;4.20;;;4.70;91.80;;;;;;5015116;28;20413;-72
2021/12/10 00:22:59;;;;;;;7.43;3.97;;;4.70;91.90;;;;;;4997221;28;20828;-72
2021/12/10 00:25:37;;;;;;;5.17;4.00;;;4.70;92.00;;;;;;5015178;28;20517;-73
2021/12/10 00:28:14;;;;;;;5.67;3.40;;;4.60;92.00;;;;;;5013981;28;20468;-73
2021/12/10 00:30:56;;;;;;;3.67;2.60;;;4.60;92.10;;;;;;5015923;28;20839;-73
2021/12/10 00:33:24;;;;;;;6.60;3.13;;;4.60;92.00;;;;;;5016261;28;20395;-73
2021/12/10 00:35:55;;;;;;;6.23;3.53;;;4.60;91.90;;;;;;5015071;28;20434;-74
2021/12/10 00:38:22;;;;;;;3.70;2.80;;;4.60;91.90;;;;;;5017360;28;20775;-72
2021/12/10 00:40:49;;;;;;;6.83;3.90;;;4.60;92.00;;;;;;5014242;28;20410;-74
2021/12/10 00:43:15;;;;;;;3.70;2.97;;;4.60;92.00;;;;;;4995939;28;20411;-73
2021/12/10 00:45:41;;;;;;;10.13;3.50;;;4.60;92.10;;;;;;5012614;28;20843;-72
2021/12/10 00:48:07;;;;;;;4.90;3.33;;;4.60;92.50;;;;;;5012762;28;20171;-73
2021/12/10 00:50:43;;;;;;;4.93;3.60;;;4.60;92.10;;;;;;5011502;28;20649;-73
2021/12/10 00:53:09;;;;;;;5.37;3.57;;;4.50;92.20;;;;;;5012846;28;20410;-73
2021/12/10 00:55:35;;;;;;;7.03;3.37;;;4.40;92.30;;;;;;4994992;28;20504;-73
2021/12/10 00:58:02;;;;;;;5.60;3.63;;;4.40;92.30;;;;;;5012164;28;20271;-73
2021/12/10 01:00:34;;;;;;;7.33;3.50;;;4.30;92.30;;;;;;5012741;28;20175;-72
2021/12/10 01:03:03;;;;;;;6.97;2.93;;;4.30;92.80;;;;;;5013252;28;20412;-73
2021/12/10 01:05:28;;;;;;;6.83;3.20;;;4.20;92.50;;;;;;5014882;28;20476;-72
2021/12/10 01:07:54;;;;;;;5.90;3.43;;;4.20;92.70;;;;;;5013721;28;20413;-73
2021/12/10 01:10:34;;;;;;;5.43;3.37;;;4.20;92.80;;;;;;4995049;28;20193;-73
2021/12/10 01:13:03;;;;;;;5.33;2.97;;;4.20;92.90;;;;;;5011954;28;20578;-73
2021/12/10 01:23:53;;;;;;;6.63;3.37;;;4.10;93.10;;;;;;5012244;28;20406;-73
2021/12/10 01:29:06;;;;;;;8.43;3.10;;;4.10;93.00;;;;;;5012165;28;20777;-73
2021/12/10 01:31:32;;;;;;;6.83;2.63;;;4.10;92.90;;;;;;4994306;28;20533;-73
2021/12/10 01:33:58;;;;;;;11.47;3.47;;;4.10;92.80;;;;;;4994927;28;20453;-72
2021/12/10 01:36:24;;;;;;;6.13;3.40;;;4.10;92.70;;;;;;5013073;28;20433;-73
2021/12/10 01:38:53;;;;;;;5.60;3.30;;;4.20;92.50;;;;;;5012353;28;20175;-72
2021/12/10 01:41:23;;;;;;;9.87;3.63;;;4.30;92.70;;;;;;5011162;28;20167;-73
2021/12/10 01:43:52;;;;;;;7.80;3.27;;;4.30;92.00;;;;;;5011189;28;20421;-73
2021/12/10 01:46:27;;;;;;;8.23;3.27;;;4.40;91.90;;;;;;5011613;28;20461;-73
2021/12/10 01:48:56;;;;;;;4.20;2.30;;;4.40;91.80;;;;;;4994300;28;20435;-72
2021/12/10 01:51:25;;;;;;;7.07;2.80;;;4.40;91.80;;;;;;5011878;28;20963;-73
2021/12/10 01:53:56;;;;;;;8.17;2.97;;;4.30;91.70;;;;;;5011355;28;20422;-73
2021/12/10 01:56:28;;;;;;;9.90;3.17;;;4.40;91.80;;;;;;4993517;28;20425;-73
2021/12/10 01:58:55;;;;;;;5.17;2.90;;;4.40;91.80;;;;;;5011500;28;20799;-73
2021/12/10 02:01:31;;;;;;;6.40;3.53;;;4.40;91.80;;;;;;5010876;28;20426;-73
2021/12/10 02:03:58;;;;;;;5.20;2.53;;;4.40;91.80;;;;;;4993683;28;20414;-73
2021/12/10 02:06:24;;;;;;;9.73;3.30;;;4.40;91.90;;;;;;5010875;28;20493;-72
2021/12/10 02:08:50;;;;;;;8.20;2.93;;;4.30;91.90;;;;;;5011275;28;20438;-72
2021/12/10 02:11:17;;;;;;;8.60;3.10;;;4.30;92.00;;;;;;4993298;28;20207;-73
2021/12/10 02:13:45;;;;;;;6.70;2.97;;;4.30;91.90;;;;;;4993629;28;20410;-73
2021/12/10 02:16:11;;;;;;;16.37;3.60;;;4.30;92.10;;;;;;4993355;28;20480;-73
2021/12/10 02:18:37;;;;;;;5.63;3.50;;;4.30;92.00;;;;;;5011150;28;20406;-73
2021/12/10 02:21:03;;;;;;;5.27;3.50;;;4.30;92.00;;;;;;5011437;28;20182;-72
2021/12/10 02:23:32;;;;;;;5.80;3.60;;;4.30;92.00;;;;;;4993181;28;20414;-73
2021/12/10 02:26:01;;;;;;;8.50;3.80;;;4.30;92.10;;;;;;4993661;28;20986;-72
2021/12/10 02:28:27;;;;;;;9.77;3.50;;;4.20;92.10;;;;;;5011046;28;20426;-72
2021/12/10 02:30:54;;;;;;;8.30;4.10;;;4.10;92.20;;;;;;5011425;28;20457;-72
2021/12/10 02:33:21;;;;;;;8.33;3.27;;;4.10;92.30;;;;;;5011012;28;20805;-73
2021/12/10 02:35:47;;;;;;;10.60;3.77;;;4.00;92.30;;;;;;4993926;28;20441;-73
2021/12/10 02:38:16;;;;;;;9.40;2.17;;;4.00;92.50;;;;;;4993452;28;20721;-74
2021/12/10 02:40:43;;;;;;;10.40;2.90;;;3.90;92.60;;;;;;4993221;28;20433;-73
2021/12/10 02:43:11;;;;;;;7.53;3.37;;;3.90;92.70;;;;;;4992999;28;20457;-73
2021/12/10 02:45:39;;;;;;;8.70;3.37;;;3.80;92.70;;;;;;4993538;28;20441;-73
2021/12/10 02:48:05;;;;;;;8.83;4.10;;;3.80;92.80;;;;;;5011039;28;20792;-72
2021/12/10 02:50:32;;;;;;;3.50;1.97;;;3.80;92.80;;;;;;5011108;28;20780;-73
2021/12/10 02:52:59;;;;;;;11.00;3.20;;;3.70;92.80;;;;;;5010552;28;20410;-73
2021/12/10 02:55:25;;;;;;;4.13;2.73;;;3.80;92.80;;;;;;5010877;28;20464;-73
2021/12/10 02:57:54;;;;;;;7.80;2.30;;;3.70;92.80;;;;;;4993297;28;20837;-73
2021/12/10 03:00:29;;;;;;;4.53;2.23;;;3.70;92.80;;;;;;5011223;28;20179;-73
2021/12/10 03:02:55;;;;;;;6.90;3.03;;;3.80;92.80;;;;;;5010871;28;20740;-73
2021/12/10 03:05:21;;;;;;;5.73;2.33;;;3.70;92.80;;;;;;5010391;28;20418;-72
2021/12/10 03:07:47;;;;;;;4.50;2.30;;;3.70;92.80;;;;;;5010694;28;20460;-72
2021/12/10 03:10:20;;;;;;;6.83;2.03;;;3.70;92.70;;;;;;5010567;28;20159;-72
2021/12/10 03:12:46;;;;;;;7.10;2.20;;;3.70;92.70;;;;;;5010886;28;20421;-72
2021/12/10 03:15:14;;;;;;;6.50;1.67;;;3.70;92.60;;;;;;5013660;28;20414;-73
2021/12/10 03:17:42;;;;;;;6.07;1.60;;;3.80;92.50;;;;;;5014239;28;20684;-72
2021/12/10 03:20:11;;;;;;;2.83;2.13;;;3.80;92.40;;;;;;5014186;28;20402;-72
2021/12/10 03:22:38;;;;;;;4.40;1.70;;;3.90;92.10;;;;;;5013983;28;20440;-73
2021/12/10 03:25:06;;;;;;;10.17;2.27;;;3.90;92.00;;;;;;5014300;28;20476;-73
2021/12/10 03:27:32;;;;;;;7.23;2.03;;;3.90;92.00;;;;;;5014000;28;20561;-72
2021/12/10 03:29:58;;;;;;;5.03;1.67;;;3.80;91.90;;;;;;5014207;28;20409;-73
2021/12/10 03:32:29;;;;;;;10.30;2.30;;;3.90;92.00;;;;;;4996101;28;20963;-72
2021/12/10 03:35:00;;;;;;;5.77;1.93;;;3.90;92.00;;;;;;5014404;28;20583;-72
2021/12/10 03:37:27;;;;;;;5.03;1.83;;;3.90;91.70;;;;;;5015053;28;20438;-73
2021/12/10 03:39:53;;;;;;;7.53;1.30;;;3.80;91.50;;;;;;5000890;28;20771;-73
2021/12/10 03:42:21;;;;;;;10.07;1.63;;;3.80;91.40;;;;;;4996801;28;20398;-73
2021/12/10 03:44:47;;;;;;;5.13;1.27;;;3.80;91.50;;;;;;5014192;28;20855;-72
2021/12/10 03:47:13;;;;;;;4.90;1.33;;;3.70;91.60;;;;;;4996133;28;20449;-72
2021/12/10 03:49:40;;;;;;;5.40;1.43;;;3.70;91.50;;;;;;5012453;28;20421;-73
2021/12/10 03:52:07;;;;;;;8.27;1.67;;;3.70;91.50;;;;;;5013068;28;20777;-73
2021/12/10 03:54:34;;;;;;;4.13;1.20;;;3.80;91.40;;;;;;5013909;28;20414;-72
2021/12/10 03:57:00;;;;;;;10.67;1.50;;;3.80;91.40;;;;;;5013784;28;20430;-73
2021/12/10 03:59:26;;;;;;;4.80;1.53;;;3.90;91.30;;;;;;5013836;28;20958;-73
2021/12/10 04:01:56;;;;;;;4.43;1.47;;;3.90;91.20;;;;;;5012970;28;20418;-73
2021/12/10 04:04:26;;;;;;;9.13;2.43;;;3.90;91.40;;;;;;4995590;28;20429;-72
2021/12/10 04:06:55;;;;;;;3.77;1.27;;;3.90;91.00;;;;;;5013282;28;20859;-73
2021/12/10 04:09:21;;;;;;;2.43;1.20;;;3.90;91.00;;;;;;5013237;28;20512;-72
2021/12/10 04:11:47;;;;;;;5.10;1.57;;;4.00;91.00;;;;;;4995502;28;20457;-73
2021/12/10 04:14:13;;;;;;;3.83;1.57;;;4.00;90.90;;;;;;5013080;28;20973;-73
2021/12/10 04:16:38;;;;;;;5.20;1.60;;;4.00;90.90;;;;;;5013437;28;20442;-72
2021/12/10 04:19:07;;;;;;;17.33;1.83;;;4.00;90.90;;;;;;4995296;28;20175;-73
2021/12/10 04:21:39;;;;;;;7.33;2.40;;;4.00;90.80;;;;;;5013168;28;20525;-72
2021/12/10 04:24:15;;;;;;;5.93;1.77;;;4.10;90.90;;;;;;4995198;28;20789;-72
2021/12/10 04:26:41;;;;;;;4.00;1.23;;;4.10;90.70;;;;;;5012861;28;20848;-72
2021/12/10 04:29:08;;;;;;;3.27;1.20;;;4.10;90.80;;;;;;5012868;28;20449;-72
2021/12/10 04:31:34;;;;;;;2.87;1.30;;;4.10;90.80;;;;;;5013197;28;20458;-73
2021/12/10 04:34:00;;;;;;;2.83;1.27;;;4.10;91.00;;;;;;5024756;28;20425;-73
2021/12/10 04:36:25;;;;;;;11.03;1.60;;;4.20;90.80;;;;;;5037824;28;20477;-72
2021/12/10 04:38:51;;;;;;;3.47;1.37;;;4.20;90.60;;;;;;5038036;28;20410;-72
2021/12/10 04:41:17;;;;;;;3.93;1.67;;;4.20;90.50;;;;;;5037293;28;20190;-72
2021/12/10 04:43:47;;;;;;;3.63;2.13;;;4.20;90.60;;;;;;5035029;28;20167;-72
2021/12/10 04:46:15;;;;;;;6.67;3.07;;;4.20;90.50;;;;;;5019451;28;20198;-73
2021/12/10 04:49:03;;;;;;;6.10;1.40;;;4.20;90.30;;;;;;4995271;28;20932;-72
2021/12/10 04:51:36;;;;;;;6.03;1.30;;;4.20;90.70;;;;;;4995283;28;20556;-73
2021/12/10 04:54:05;;;;;;;6.00;1.73;;;4.20;90.30;;;;;;4995799;28;20429;-73
2021/12/10 04:56:31;;;;;;;4.17;1.50;;;4.20;90.20;;;;;;5012735;28;20943;-71
2021/12/10 04:58:59;;;;;;;7.37;2.20;;;4.20;90.30;;;;;;5013076;28;20452;-72
2021/12/10 05:01:25;;;;;;;5.07;1.93;;;4.10;90.30;;;;;;5013664;28;20410;-73
2021/12/10 05:03:51;;;;;;;4.87;2.80;;;4.10;90.40;;;;;;5013624;28;20410;-73
2021/12/10 05:06:16;;;;;;;5.50;1.73;;;4.00;90.40;;;;;;5035774;22;20944;-76
2021/12/10 05:08:42;;;;;;;3.30;1.60;;;4.00;90.40;;;;;;5012603;28;20254;-77
2021/12/10 05:11:10;;;;;;;3.43;2.13;;;3.90;90.40;;;;;;5016458;28;20341;-80
2021/12/10 05:13:38;;;;;;;7.87;2.10;;;3.90;90.50;;;;;;5016317;28;20406;-77
2021/12/10 05:16:07;;;;;;;6.77;2.33;;;3.80;90.60;;;;;;5015282;28;20435;-76
2021/12/10 05:18:37;;;;;;;15.03;2.73;;;3.80;90.70;;;;;;4999851;28;20510;-76
2021/12/10 05:21:04;;;;;;;10.40;2.63;;;3.70;90.70;;;;;;5005472;28;20430;-76
2021/12/10 05:23:31;;;;;;;13.63;1.97;;;3.70;90.80;;;;;;5004280;28;20656;-77
2021/12/10 05:25:57;;;;;;;3.20;1.50;;;3.70;90.80;;;;;;4996442;28;20421;-77
2021/12/10 05:28:24;;;;;;;6.73;2.10;;;3.70;90.90;;;;;;4979193;28;20498;-78
2021/12/10 05:30:55;;;;;;;5.03;1.97;;;3.60;90.90;;;;;;4998761;28;20454;-78
2021/12/10 05:33:22;;;;;;;13.30;2.67;;;3.60;91.00;;;;;;4996053;28;20494;-78
2021/12/10 05:35:48;;;;;;;3.90;2.30;;;3.60;91.20;;;;;;4996096;28;20431;-77
2021/12/10 05:38:17;;;;;;;6.23;2.60;;;3.50;91.20;;;;;;4995441;28;20406;-78
2021/12/10 05:40:45;;;;;;;8.63;2.10;;;3.50;91.20;;;;;;4992567;28;20415;-77
2021/12/10 05:43:11;;;;;;;4.07;2.10;;;3.50;91.30;;;;;;4993837;28;20413;-77
2021/12/10 05:45:37;;;;;;;7.30;2.37;;;3.50;91.30;;;;;;4996455;28;20411;-76
2021/12/10 05:48:04;;;;;;;5.70;2.00;;;3.40;91.50;;;;;;4996722;28;20462;-76
2021/12/10 05:50:30;;;;;;;4.50;1.67;;;3.50;91.60;;;;;;4997306;28;20407;-77
2021/12/10 05:52:56;;;;;;;9.93;3.03;;;3.40;91.50;;;;;;4995360;28;20451;-78
2021/12/10 05:55:23;;;;;;;4.93;1.87;;;3.40;91.50;;;;;;4996484;28;20423;-77
2021/12/10 05:57:49;;;;;;;3.93;1.90;;;3.40;91.50;;;;;;4997389;28;20427;-77
2021/12/10 06:00:20;;;;;;;2.33;1.30;;;3.40;91.60;;;;;;4997562;28;20449;-77
2021/12/10 06:02:46;;;;;;;6.80;2.10;;;3.40;91.50;;;;;;4994150;28;20458;-76
2021/12/10 06:05:12;;;;;;;6.03;1.93;;;3.40;91.60;;;;;;4994692;28;20415;-77
2021/12/10 06:07:38;;;;;;;4.13;2.20;;;3.30;91.60;;;;;;4996761;28;20481;-77
2021/12/10 06:10:07;;;;;;;9.20;2.63;;;3.30;91.70;;;;;;4997304;28;20431;-77
2021/12/10 06:12:33;;;;;;;7.80;2.27;;;3.30;91.70;;;;;;4997288;28;20458;-77
2021/12/10 06:14:59;;;;;;;3.33;1.73;;;3.30;91.80;;;;;;4995174;28;20415;-76
2021/12/10 06:17:25;;;;;;;10.60;2.20;;;3.30;91.80;;;;;;4994858;28;20616;-77
2021/12/10 06:19:51;;;;;;;8.00;2.17;;;3.30;91.90;;;;;;4996107;28;20626;-77
2021/12/10 06:22:17;;;;;;;6.43;2.53;;;3.30;91.90;;;;;;4993817;28;20418;-77
2021/12/10 06:24:43;;;;;;;3.47;1.77;;;3.30;91.90;;;;;;4994929;28;20172;-79
2021/12/10 06:27:08;;;;;;;7.67;2.37;;;3.30;92.00;;;;;;4993603;28;20514;-80
2021/12/10 06:29:36;;;;;;;12.80;2.63;;;3.20;92.00;;;;;;4995535;28;20415;-79
2021/12/10 06:32:02;;;;;;;4.50;2.03;;;3.20;92.00;;;;;;4998681;28;20291;-80
2021/12/10 06:34:28;;;;;;;8.97;2.33;;;3.20;92.00;;;;;;5009706;28;20418;-79
2021/12/10 06:36:54;;;;;;;4.80;1.50;;;3.20;92.00;;;;;;5015080;28;20527;-80
2021/12/10 06:39:20;;;;;;;3.87;2.13;;;3.20;92.10;;;;;;5014906;28;20170;-80
2021/12/10 06:42:12;;;;;;;3.53;2.27;;;3.20;92.00;;;;;;5019349;28;20731;-79
2021/12/10 06:44:38;;;;;;;4.30;1.73;;;3.20;92.10;;;;;;5011786;28;20930;-79
2021/12/10 06:47:06;;;;;;;3.33;1.80;;;3.10;92.20;;;;;;5014751;28;20437;-79
2021/12/10 06:49:32;;;;;;;4.93;2.13;;;3.10;92.10;;;;;;4996728;28;20179;-79
2021/12/10 06:52:01;;;;;;;5.87;2.07;;;3.20;92.20;;;;;;5008637;28;21080;-79
2021/12/10 06:54:28;;;;;;;10.53;2.70;;;3.10;92.20;;;;;;5010669;28;20422;-79
2021/12/10 06:56:56;;;;;;;4.30;2.10;;;3.10;92.20;;;;;;5018596;28;20476;-79
2021/12/10 06:59:24;;;;;;;10.63;2.50;;;3.10;92.20;;;;;;5017960;28;20398;-79
2021/12/10 07:01:50;;;;;;;7.93;2.03;;;3.10;92.20;;;;;;5016043;28;20449;-79
2021/12/10 07:04:15;;;;;;;11.27;1.90;;;3.10;92.20;;;;;;5014859;28;20810;-79
2021/12/10 07:06:44;;;;;;;7.70;1.97;;;3.10;92.20;;;;;;4997261;28;20205;-78
2021/12/10 07:09:17;;;;;;;8.60;1.60;;;3.10;92.10;;;;;;4996036;28;20198;-78
2021/12/10 07:11:44;;;;;;;4.93;1.80;;;3.20;92.00;;;;;;4995635;28;20586;-78
2021/12/10 07:14:09;;;;;;;8.57;1.73;;;3.20;91.90;;;;;;5010768;28;20433;-78
2021/12/10 07:16:35;;;;;;;8.73;1.50;;;3.20;91.80;;;;;;5014334;28;20450;-78
2021/12/10 07:19:03;;;;;;;5.40;2.20;;;3.30;91.60;;;;;;5017535;28;20516;-79
2021/12/10 07:21:29;;;;;;;5.50;2.30;;;3.30;91.60;;;;;;5014572;28;20195;-78
2021/12/10 07:23:55;;;;;;;10.17;2.60;;;3.30;91.50;;;;;;5013830;28;20900;-76
2021/12/10 07:26:21;;;;;;;4.40;1.67;;;3.30;91.50;;;;;;5016282;28;20444;-79
2021/12/10 07:28:47;;;;;;;8.13;2.07;;;3.30;91.40;;;;;;5023362;28;20974;-79
2021/12/10 07:31:13;;;;;;;5.23;1.83;;;3.30;91.30;;;;;;5014517;28;20457;-79
2021/12/10 07:33:40;;;;;;;4.63;1.83;;;3.30;91.20;;;;;;5013318;28;20167;-79
2021/12/10 07:36:07;;;;;;;3.37;2.10;;;3.40;91.00;;;;;;5004715;28;20438;-79
2021/12/10 07:38:34;;;;;;;5.10;1.90;;;3.40;91.00;;;;;;5015069;28;20772;-80
2021/12/10 07:41:00;;;;;;;6.73;1.70;;;3.50;91.00;;;;;;5014332;28;20430;-79
2021/12/10 07:43:25;;;;;;;5.43;2.17;;;3.50;90.80;;;;;;5019837;28;20776;-79
2021/12/10 07:45:52;;;;;;;8.27;2.00;;;3.50;90.70;;;;;;4998141;28;20494;-79
2021/12/10 07:48:20;;;;;;;6.27;1.93;;;3.60;90.60;;;;;;5000123;28;20168;-79
2021/12/10 07:50:54;;;;;;;6.33;2.43;;;3.70;90.40;;;;;;5017361;28;20434;-79
2021/12/10 07:53:22;;;;;;;10.83;1.87;;;3.70;90.10;;;;;;5016628;28;20756;-79
2021/12/10 07:55:48;;;;;;;5.70;1.90;;;3.80;90.00;;;;;;5017927;28;20529;-78
2021/12/10 07:58:14;;;;;;;11.97;2.50;;;3.90;89.20;;;;;;5013091;28;20480;-78
2021/12/10 08:00:42;;;;;;;4.07;1.50;;;3.90;89.20;;;;;;5015277;28;20430;-77
2021/12/10 08:03:11;;;;;;;6.70;2.00;;;3.90;88.80;;;;;;5014494;28;21022;-79
2021/12/10 08:05:39;;;;;;;9.80;1.90;;;4.00;88.90;;;;;;5013575;28;20471;-77
2021/12/10 08:08:08;;;;;;;4.20;1.10;;;4.00;88.40;;;;;;5013238;28;20422;-77
2021/12/10 08:10:36;;;;;;;5.90;1.33;;;4.10;88.40;;;;;;5012579;28;20437;-77
2021/12/10 08:13:02;;;;;;;11.10;1.73;;;4.10;88.20;;;;;;5013004;28;20765;-78
2021/12/10 08:15:28;;;;;;;8.27;1.90;;;4.10;87.60;;;;;;5011464;28;20448;-77
2021/12/10 08:17:57;;;;;;;2.93;1.90;;;4.10;87.30;;;;;;5012432;28;20533;-77
2021/12/10 08:20:25;;;;;;;5.90;1.53;;;4.10;87.20;;;;;;5012534;28;20889;-77
2021/12/10 08:22:52;;;;;;;4.53;1.83;;;4.10;87.40;;;;;;5014100;28;20541;-79
2021/12/10 08:25:19;;;;;;;7.53;1.73;;;4.20;87.50;;;;;;5010662;28;20406;-78
2021/12/10 08:27:45;;;;;;;3.20;2.00;;;4.20;87.10;;;;;;5016284;28;20958;-78
2021/12/10 08:30:15;;;;;;;6.70;2.23;;;4.20;87.00;;;;;;5016283;28;20460;-79
2021/12/10 08:32:42;;;;;;;8.03;2.40;;;4.20;86.90;;;;;;5011609;28;20598;-78
2021/12/10 08:35:17;;;;;;;11.10;3.00;;;4.20;86.70;;;;;;5014048;28;20430;-79
2021/12/10 08:37:42;;;;;;;8.73;2.30;;;4.30;86.10;;;;;;5002673;28;21009;-78
2021/12/10 08:40:11;;;;;;;13.27;3.70;;;4.30;86.40;;;;;;5013163;28;20453;-79
2021/12/10 08:42:37;;;;;;;6.50;2.13;;;4.30;86.30;;;;;;5012932;28;20175;-79
2021/12/10 08:45:05;;;;;;;15.60;5.20;;;4.40;86.10;;;;;;5011275;28;20502;-77
2021/12/10 08:47:30;;;;;;;13.80;2.60;;;4.40;84.60;;;;;;5016062;28;20195;-80
2021/12/10 08:49:56;;;;;;;8.10;2.53;;;4.50;84.00;;;;;;5013203;28;20425;-79
2021/12/10 08:52:22;;;;;;;10.00;2.63;;;4.50;84.50;;;;;;5000081;28;20256;-79
2021/12/10 08:54:48;;;;;;;6.77;2.03;;;4.50;83.50;;;;;;4994570;28;20418;-79
2021/12/10 08:57:14;;;;;;;10.10;2.80;;;4.50;83.40;;;;;;4994367;28;20188;-76
2021/12/10 08:59:41;;;;;;;12.53;2.87;;;4.50;83.20;;;;;;4992229;28;20540;-78
2021/12/10 09:02:13;;;;;;;13.00;2.73;;;4.40;82.50;;;;;;5011806;28;20429;-79
2021/12/10 09:04:40;;;;;;;3.90;2.90;;;4.50;82.50;;;;;;5012693;28;20795;-79
2021/12/10 09:07:09;;;;;;;9.13;2.50;;;4.50;82.60;;;;;;5011188;28;20446;-78
2021/12/10 09:09:37;;;;;;;5.07;2.90;;;4.50;82.40;;;;;;5012088;28;20647;-78
2021/12/10 09:12:09;;;;;;;6.47;3.13;;;4.50;82.20;;;;;;5010017;28;20508;-79
2021/12/10 09:14:41;;;;;;;8.53;3.60;;;4.50;81.30;;;;;;5012413;28;20418;-78
2021/12/10 09:17:09;;;;;;;10.07;3.40;;;4.50;82.00;;;;;;5012401;28;20425;-81
2021/12/10 09:19:36;;;;;;;7.70;2.43;;;4.50;81.60;;;;;;5014583;28;20430;-80
2021/12/10 09:22:05;;;;;;;7.80;3.20;;;4.50;80.70;;;;;;5014199;28;20430;-78
2021/12/10 09:24:31;;;;;;;3.00;2.70;;;4.50;80.90;;;;;;5012595;28;21003;-77
2021/12/10 09:26:58;;;;;;;9.00;3.17;;;4.50;80.80;;;;;;5000384;28;20533;-79
2021/12/10 09:29:31;;;;;;;8.83;3.00;;;4.50;80.80;;;;;;5011938;28;20183;-78
2021/12/10 09:31:58;;;;;;;7.07;2.50;;;4.60;80.20;;;;;;5008548;28;20461;-78
2021/12/10 09:34:24;;;;;;;5.40;3.17;;;4.50;79.80;;;;;;5012784;28;20489;-78
2021/12/10 09:36:51;;;;;;;8.70;2.80;;;4.60;79.60;;;;;;5012730;28;20430;-78
2021/12/10 09:39:20;;;;;;;8.40;2.50;;;4.60;79.80;;;;;;4997662;28;20429;-78
2021/12/10 09:41:50;;;;;;;6.67;2.70;;;4.60;80.30;;;;;;4991924;28;20730;-78
2021/12/10 09:44:17;;;;;;;6.57;2.87;;;4.60;79.80;;;;;;4993573;28;20418;-78
2021/12/10 09:46:45;;;;;;;4.57;3.07;;;4.60;79.40;;;;;;4994600;28;20426;-78
2021/12/10 09:49:12;;;;;;;9.63;2.90;;;4.70;78.90;;;;;;5004232;28;20421;-80
2021/12/10 09:51:49;;;;;;;9.13;3.00;;;4.70;79.50;;;;;;5003959;28;20527;-78
2021/12/10 09:54:17;;;;;;;8.90;3.40;;;4.70;79.00;;;;;;5011777;28;20989;-80
2021/12/10 09:57:12;;;;;;;4.50;2.70;;;4.60;78.90;;;;;;5004407;28;20450;-80
2021/12/10 09:59:40;;;;;;;5.20;2.43;;;4.70;79.60;;;;;;4992122;28;20417;-77
2021/12/10 10:02:06;;;;;;;7.03;2.67;;;4.80;78.70;;;;;;4992609;28;20425;-79
2021/12/10 10:04:37;;;;;;;3.60;2.50;;;4.70;78.00;;;;;;4992998;28;20411;-78
2021/12/10 10:07:08;;;;;;;5.10;2.40;;;4.70;77.80;;;;;;5005067;28;20561;-78
2021/12/10 10:09:34;;;;;;;8.47;3.20;;;4.70;78.00;;;;;;5012452;28;20496;-77
2021/12/10 10:12:11;;;;;;;5.23;2.27;;;4.80;78.70;;;;;;5004313;28;20538;-78
2021/12/10 10:14:39;;;;;;;8.27;2.80;;;4.80;78.10;;;;;;5009897;28;20402;-79
2021/12/10 10:17:07;;;;;;;5.70;2.43;;;4.80;77.50;;;;;;4997121;28;20435;-78
2021/12/10 10:19:34;;;;;;;5.13;2.27;;;4.80;76.90;;;;;;4995439;28;20422;-78
2021/12/10 10:22:02;;;;;;;7.13;2.10;;;4.80;77.00;;;;;;5011711;28;20464;-78
2021/12/10 10:24:29;;;;;;;6.70;2.03;;;4.80;77.20;;;;;;5015384;28;20422;-77
2021/12/10 10:27:06;;;;;;;5.07;2.60;;;4.80;77.00;;;;;;5016702;28;20452;-78
2021/12/10 10:29:36;;;;;;;3.90;2.40;;;4.90;76.90;;;;;;5016633;28;20418;-78
2021/12/10 10:32:15;;;;;;;5.80;3.10;;;4.90;75.60;;;;;;5020067;28;20529;-78
2021/12/10 10:34:48;;;;;;;6.63;2.40;;;4.90;76.20;;;;;;5030010;28;20421;-77
2021/12/10 10:37:14;;;;;;;6.90;2.40;;;4.90;75.40;;;;;;5014599;28;20446;-78
2021/12/10 10:39:43;;;;;;;6.20;2.93;;;4.90;75.70;;;;;;5015424;28;20521;-79
2021/12/10 10:42:16;;;;;;;5.03;2.13;;;5.00;74.70;;;;;;5014181;28;20450;-78
2021/12/10 10:44:44;;;;;;;5.97;2.17;;;5.00;75.00;;;;;;5014122;28;20418;-77
2021/12/10 10:47:10;;;;;;;4.50;2.07;;;5.10;75.00;;;;;;5014254;28;20437;-76
2021/12/10 10:49:43;;;;;;;4.60;2.73;;;5.20;74.20;;;;;;5013240;28;20424;-77
2021/12/10 10:52:23;;;;;;;6.93;2.77;;;5.20;73.20;;;;;;5013822;28;20544;-77
2021/12/10 10:54:51;;;;;;;3.87;1.57;;;5.30;74.00;;;;;;5013017;28;20422;-78
2021/12/10 10:57:26;;;;;;;10.90;1.97;;;5.40;73.40;;;;;;5012520;28;20807;-78
2021/12/10 11:00:09;;;;;;;5.80;2.50;;;5.40;72.70;;;;;;4995687;28;20448;-76
2021/12/10 11:02:49;;;;;;;4.80;2.27;;;5.50;73.10;;;;;;4996941;28;20523;-78
2021/12/10 11:05:18;;;;;;;6.97;2.80;;;5.50;71.90;;;;;;5010421;28;20421;-78
2021/12/10 11:07:57;;;;;;;3.70;1.97;;;5.50;71.90;;;;;;5048424;22;20488;-75
2021/12/10 11:10:28;;;;;;;4.73;1.67;;;5.40;71.20;;;;;;5036788;28;20413;-73
2021/12/10 11:13:06;;;;;;;8.23;2.10;;;5.40;71.40;;;;;;5036982;28;20613;-73
2021/12/10 11:15:32;;;;;;;7.60;2.53;;;5.50;71.90;;;;;;5036475;28;20422;-74
2021/12/10 11:17:57;;;;;;;6.33;2.40;;;5.60;72.10;;;;;;5036391;28;20425;-73
2021/12/10 11:20:32;;;;;;;3.50;1.80;;;5.70;71.80;;;;;;5036317;28;20424;-74
2021/12/10 11:23:03;;;;;;;6.90;2.33;;;5.70;70.00;;;;;;5000095;28;20214;-73
2021/12/10 11:25:39;;;;;;;4.27;1.93;;;5.70;69.40;;;;;;5016627;28;20410;-72
2021/12/10 11:28:10;;;;;;;3.17;1.90;;;5.70;68.80;;;;;;5016291;28;20440;-74
2021/12/10 11:30:42;;;;;;;7.53;2.17;;;5.80;69.10;;;;;;5016634;28;20405;-73
2021/12/10 11:33:17;;;;;;;5.13;2.33;;;5.80;69.00;;;;;;5020332;28;20448;-75
2021/12/10 11:35:58;;;;;;;6.57;1.80;;;5.80;68.90;;;;;;5017848;28;20409;-74
2021/12/10 11:38:31;;;;;;;11.33;2.13;;;5.90;68.80;;;;;;5016320;28;20409;-72
2021/12/10 11:41:01;;;;;;;6.70;1.90;;;5.90;68.40;;;;;;5016041;28;20596;-71
2021/12/10 11:49:03;;;;;;;8.27;2.40;;;6.00;67.30;;;;;;5020815;28;20476;-72
2021/12/10 11:51:37;;;;;;;3.80;1.70;;;6.00;67.60;;;;;;5023619;28;20485;-71
2021/12/10 11:54:14;;;;;;;6.63;2.00;;;6.10;67.10;;;;;;5024980;28;20413;-73
2021/12/10 11:56:58;;;;;;;4.23;1.67;;;6.00;66.20;;;;;;5022479;28;20520;-72
2021/12/10 11:59:27;;;;;;;4.40;1.90;;;6.00;65.90;;;;;;5021020;28;20420;-71
2021/12/10 12:02:07;;;;;;;4.70;1.97;;;5.90;66.20;;;;;;5008656;28;20418;-73
2021/12/10 12:04:41;;;;;;;6.10;1.50;;;5.80;66.40;;;;;;5022134;28;20410;-73
2021/12/10 12:07:15;;;;;;;7.23;2.53;;;5.80;67.10;;;;;;5004924;28;20492;-72
2021/12/10 12:09:42;;;;;;;2.67;1.63;;;5.80;67.50;;;;;;5024847;28;20751;-71
2021/12/10 12:12:14;;;;;;;3.67;2.23;;;5.90;68.00;;;;;;5023838;28;20446;-73
2021/12/10 12:14:49;;;;;;;6.73;2.67;;;5.90;68.10;;;;;;5024912;28;20445;-71
2021/12/10 12:17:38;;;;;;;8.00;2.70;;;5.90;68.30;;;;;;5007747;28;20465;-71
2021/12/10 12:20:21;;;;;;;4.33;1.83;;;5.90;67.20;;;;;;5023529;28;20432;-72
2021/12/10 12:25:48;;;;;;;3.80;2.00;;;5.80;66.40;;;;;;5024018;28;20410;-75
2021/12/10 12:28:16;;;;;;;8.30;2.53;;;5.70;66.70;;;;;;5021058;28;20437;-74
2021/12/10 12:30:59;;;;;;;4.43;2.00;;;5.60;66.70;;;;;;5004643;28;20453;-73
2021/12/10 12:33:31;;;;;;;4.07;1.93;;;5.60;67.90;;;;;;5004127;28;20474;-72
2021/12/10 12:35:57;;;;;;;10.33;4.30;;;5.50;68.60;;;;;;5003468;28;20429;-73
2021/12/10 12:38:29;;;;;;;5.23;2.13;;;5.50;69.40;;;;;;5004564;28;20464;-72
2021/12/10 12:41:26;;;;;;;5.83;2.10;;;5.50;69.80;;;;;;5010218;28;20198;-72
2021/12/10 12:44:16;;;;;;;8.30;2.50;;;5.50;70.00;;;;;;4990669;28;20422;-72
2021/12/10 12:47:06;;;;;;;3.10;1.63;;;5.50;70.70;;;;;;5025243;28;20437;-73
2021/12/10 12:49:46;;;;;;;3.33;1.83;;;5.50;70.90;;;;;;5023102;28;20434;-72
2021/12/10 12:52:26;;;;;;;5.07;1.93;;;5.40;70.70;;;;;;5009837;28;20449;-73
2021/12/10 12:55:18;;;;;;;8.60;2.07;;;5.40;70.30;;;;;;5025599;28;20399;-73
2021/12/10 12:57:56;;;;;;;4.80;2.40;;;5.30;71.50;;;;;;4989408;28;20545;-70
2021/12/10 13:00:47;;;;;;;3.93;2.10;;;5.30;71.30;;;;;;5002544;28;20428;-74
2021/12/10 13:03:44;;;;;;;9.20;2.70;;;5.30;71.90;;;;;;5007781;28;20721;-72
2021/12/10 13:06:16;;;;;;;6.03;2.40;;;5.30;72.50;;;;;;5004885;28;20494;-72
2021/12/10 13:08:45;;;;;;;3.63;2.33;;;5.30;73.10;;;;;;5005729;28;20903;-73
2021/12/10 13:11:47;;;;;;;5.07;2.00;;;5.30;73.80;;;;;;5006734;28;20449;-74
2021/12/10 13:14:17;;;;;;;5.77;2.30;;;5.20;74.50;;;;;;5013002;28;20903;-73
2021/12/10 13:16:47;;;;;;;4.60;2.83;;;5.10;75.50;;;;;;5030043;28;20417;-73
2021/12/10 13:19:21;;;;;;;7.50;2.50;;;5.20;75.70;;;;;;5023924;28;20414;-73
2021/12/10 13:21:54;;;;;;;9.97;2.60;;;5.10;76.40;;;;;;5024477;28;20510;-73
2021/12/10 13:24:21;;;;;;;6.40;2.60;;;5.10;77.20;;;;;;5024109;28;20414;-71
2021/12/10 13:26:47;;;;;;;4.13;2.87;;;5.10;76.80;;;;;;5003781;28;20516;-73